Time;durP1;ratioP1;P1;durP2;ratioP2;P2;SDS_P1;SDS_P2;PMS_P1;PMS_P2;Temp;Humidity;BMP_temperature;BMP_pressure;BME280_temperature;BME280_humidity;BME280_pressure;Samples;Min_cycle;Max_cycle;Signal;HPM_P1;HPM_P2
2023/11/25 00:01:40;;;;;;;9.35;5.40;;;;;;;;;;5007845;28;20432;-63
2023/11/25 00:04:06;;;;;;;9.77;5.85;;;;;;;;;;4998395;28;20500;-63
2023/11/25 00:06:31;;;;;;;8.65;5.57;;;;;;;;;;5006687;28;20034;-63
2023/11/25 00:08:57;;;;;;;7.70;5.20;;;;;;;;;;5006317;28;20384;-64
2023/11/25 00:11:22;;;;;;;7.72;4.43;;;;;;;;;;5007621;28;20460;-65
2023/11/25 00:13:49;;;;;;;7.97;5.22;;;;;;;;;;5005921;28;20476;-66
2023/11/25 00:16:14;;;;;;;8.68;5.85;;;;;;;;;;5006493;28;20030;-68
2023/11/25 00:18:39;;;;;;;8.13;5.22;;;;;;;;;;5007348;28;20022;-68
2023/11/25 00:21:05;;;;;;;6.18;4.55;;;;;;;;;;5005466;28;20023;-65
2023/11/25 00:23:30;;;;;;;10.13;5.68;;;;;;;;;;5006959;28;20056;-63
2023/11/25 00:25:56;;;;;;;9.93;5.18;;;;;;;;;;5006770;28;20022;-71
2023/11/25 00:28:21;;;;;;;8.95;5.28;;;;;;;;;;4995788;28;20483;-73
2023/11/25 00:30:46;;;;;;;8.52;5.05;;;;;;;;;;4997761;28;20084;-73
2023/11/25 00:33:12;;;;;;;6.68;4.45;;;;;;;;;;4980366;28;20030;-73
2023/11/25 00:35:38;;;;;;;8.13;4.88;;;;;;;;;;4998457;28;20022;-64
2023/11/25 00:38:08;;;;;;;7.10;3.78;;;;;;;;;;5015881;28;20030;-66
2023/11/25 00:40:33;;;;;;;7.65;4.80;;;;;;;;;;5015632;28;20088;-72
2023/11/25 00:42:59;;;;;;;7.68;4.72;;;;;;;;;;5015880;28;20476;-72
2023/11/25 00:45:26;;;;;;;8.35;3.92;;;;;;;;;;4998291;28;20472;-72
2023/11/25 00:47:52;;;;;;;7.97;4.35;;;;;;;;;;4998132;28;20036;-72
2023/11/25 00:50:19;;;;;;;6.47;4.25;;;;;;;;;;4982028;28;20025;-65
2023/11/25 00:52:45;;;;;;;6.95;4.30;;;;;;;;;;5015660;28;20022;-65
2023/11/25 00:55:10;;;;;;;5.45;4.30;;;;;;;;;;5015683;28;20438;-65
2023/11/25 00:57:36;;;;;;;6.82;4.30;;;;;;;;;;5015590;28;20029;-72
2023/11/25 01:00:04;;;;;;;5.78;4.05;;;;;;;;;;4981854;28;20041;-72
2023/11/25 01:02:30;;;;;;;7.72;4.63;;;;;;;;;;5015492;28;20049;-72
2023/11/25 01:04:56;;;;;;;6.55;4.35;;;;;;;;;;5013257;28;20127;-72
2023/11/25 01:07:22;;;;;;;7.00;4.22;;;;;;;;;;5015476;28;20065;-73
2023/11/25 01:09:47;;;;;;;7.15;4.40;;;;;;;;;;4997988;28;20030;-73
2023/11/25 01:12:12;;;;;;;6.40;3.80;;;;;;;;;;4997855;28;20033;-73
2023/11/25 01:14:38;;;;;;;6.80;4.55;;;;;;;;;;5015430;28;20030;-73
2023/11/25 01:17:03;;;;;;;7.93;4.80;;;;;;;;;;5015188;28;20026;-73
2023/11/25 01:19:29;;;;;;;6.93;3.92;;;;;;;;;;5015438;28;20444;-73
2023/11/25 01:21:54;;;;;;;6.38;3.85;;;;;;;;;;4997717;28;20036;-64
2023/11/25 01:24:20;;;;;;;6.63;4.35;;;;;;;;;;4997634;28;20057;-74
2023/11/25 01:26:45;;;;;;;4.55;3.45;;;;;;;;;;5015087;28;20030;-68
2023/11/25 01:29:11;;;;;;;5.30;3.58;;;;;;;;;;5015103;28;20117;-73
2023/11/25 01:31:36;;;;;;;5.00;4.32;;;;;;;;;;5015023;28;20022;-74
2023/11/25 01:34:01;;;;;;;6.78;4.10;;;;;;;;;;5014984;28;20045;-65
2023/11/25 01:36:27;;;;;;;6.00;3.88;;;;;;;;;;5014963;28;20043;-63
2023/11/25 01:38:54;;;;;;;7.43;3.92;;;;;;;;;;5014849;28;20036;-63
2023/11/25 01:41:19;;;;;;;5.57;3.33;;;;;;;;;;4997410;28;20026;-68
2023/11/25 01:43:45;;;;;;;6.80;4.05;;;;;;;;;;4997343;28;20010;-68
2023/11/25 01:46:11;;;;;;;5.63;4.20;;;;;;;;;;4997228;28;20034;-68
2023/11/25 01:48:37;;;;;;;6.07;3.67;;;;;;;;;;4980863;28;20341;-66
2023/11/25 01:51:03;;;;;;;5.32;3.83;;;;;;;;;;4997001;28;20053;-66
2023/11/25 01:53:28;;;;;;;5.07;3.40;;;;;;;;;;4980266;28;20064;-74
2023/11/25 01:55:54;;;;;;;4.65;3.28;;;;;;;;;;5014608;28;20058;-75
2023/11/25 01:58:22;;;;;;;4.15;3.42;;;;;;;;;;4996796;28;20116;-75
2023/11/25 02:00:52;;;;;;;5.95;4.25;;;;;;;;;;4993767;28;20033;-73
2023/11/25 02:03:17;;;;;;;4.35;3.53;;;;;;;;;;4979251;28;20055;-73
2023/11/25 02:05:43;;;;;;;4.95;3.70;;;;;;;;;;5014403;28;20492;-73
2023/11/25 02:08:08;;;;;;;4.82;3.78;;;;;;;;;;4996775;28;20033;-73
2023/11/25 02:10:34;;;;;;;4.95;3.97;;;;;;;;;;5014345;28;20483;-72
2023/11/25 02:13:02;;;;;;;5.13;3.60;;;;;;;;;;4980560;28;20033;-66
2023/11/25 02:15:32;;;;;;;6.43;3.95;;;;;;;;;;4993333;28;20045;-65
2023/11/25 02:17:57;;;;;;;4.75;3.88;;;;;;;;;;4993086;28;20113;-66
2023/11/25 02:20:30;;;;;;;4.97;3.88;;;;;;;;;;5005288;28;20124;-66
2023/11/25 02:22:59;;;;;;;3.88;3.35;;;;;;;;;;4993219;28;20022;-66
2023/11/25 02:25:25;;;;;;;4.15;3.65;;;;;;;;;;4993429;28;20023;-66
2023/11/25 02:27:51;;;;;;;4.82;4.05;;;;;;;;;;4995385;28;20165;-65
2023/11/25 02:30:17;;;;;;;5.40;3.95;;;;;;;;;;4993180;28;20025;-66
2023/11/25 02:32:43;;;;;;;5.45;4.22;;;;;;;;;;5005080;28;20487;-66
2023/11/25 02:35:09;;;;;;;6.45;4.10;;;;;;;;;;5011397;28;20037;-66
2023/11/25 02:37:35;;;;;;;6.82;4.07;;;;;;;;;;4996258;28;20034;-64
2023/11/25 02:40:00;;;;;;;6.35;4.10;;;;;;;;;;4996246;28;20017;-73
2023/11/25 02:42:26;;;;;;;6.38;4.15;;;;;;;;;;5013814;28;20040;-64
2023/11/25 02:44:51;;;;;;;4.30;3.72;;;;;;;;;;5013885;28;20060;-73
2023/11/25 02:47:18;;;;;;;5.78;3.88;;;;;;;;;;5013730;28;20423;-73
2023/11/25 02:49:43;;;;;;;4.63;3.78;;;;;;;;;;4995962;28;20037;-71
2023/11/25 02:52:09;;;;;;;4.57;3.78;;;;;;;;;;5013556;28;20041;-71
2023/11/25 02:54:34;;;;;;;3.58;3.10;;;;;;;;;;4996092;28;20084;-71
2023/11/25 02:57:00;;;;;;;4.93;3.55;;;;;;;;;;4995866;28;20036;-71
2023/11/25 02:59:25;;;;;;;4.93;3.83;;;;;;;;;;4995930;28;20068;-71
2023/11/25 03:01:54;;;;;;;5.03;3.90;;;;;;;;;;4996012;28;20033;-72
2023/11/25 03:04:19;;;;;;;4.60;3.63;;;;;;;;;;5013482;28;20491;-72
2023/11/25 03:06:45;;;;;;;5.82;3.83;;;;;;;;;;5013451;28;20026;-72
2023/11/25 03:09:13;;;;;;;3.70;3.28;;;;;;;;;;5013378;28;20058;-63
2023/11/25 03:11:39;;;;;;;4.03;3.53;;;;;;;;;;4995973;28;20071;-63
2023/11/25 03:14:04;;;;;;;5.32;3.65;;;;;;;;;;5013382;28;20523;-63
2023/11/25 03:16:31;;;;;;;5.72;3.65;;;;;;;;;;5013534;28;20108;-63
2023/11/25 03:18:57;;;;;;;5.07;3.78;;;;;;;;;;5013470;28;20017;-62
2023/11/25 03:21:22;;;;;;;4.82;4.13;;;;;;;;;;4995980;28;20472;-62
2023/11/25 03:23:48;;;;;;;4.43;3.70;;;;;;;;;;4995153;28;20037;-62
2023/11/25 03:26:14;;;;;;;5.93;4.38;;;;;;;;;;4992415;28;20026;-72
2023/11/25 03:28:39;;;;;;;5.82;3.85;;;;;;;;;;4992292;28;20022;-72
2023/11/25 03:31:05;;;;;;;5.13;3.83;;;;;;;;;;4992576;28;20015;-72
2023/11/25 03:33:34;;;;;;;4.75;3.95;;;;;;;;;;4978508;28;20034;-71
2023/11/25 03:36:00;;;;;;;6.03;4.03;;;;;;;;;;5004166;28;20027;-70
2023/11/25 03:38:26;;;;;;;5.00;4.50;;;;;;;;;;5002323;28;20029;-68
2023/11/25 03:40:52;;;;;;;5.07;4.40;;;;;;;;;;5004073;28;20056;-67
2023/11/25 03:43:21;;;;;;;4.25;3.90;;;;;;;;;;5003739;28;20439;-68
2023/11/25 03:45:47;;;;;;;3.60;3.30;;;;;;;;;;5002231;28;20029;-69
2023/11/25 03:48:13;;;;;;;4.88;4.15;;;;;;;;;;5003818;28;20026;-74
2023/11/25 03:50:39;;;;;;;5.25;4.70;;;;;;;;;;5001676;28;20065;-74
2023/11/25 03:53:05;;;;;;;7.07;5.03;;;;;;;;;;5004189;28;20026;-73
2023/11/25 03:55:30;;;;;;;7.05;5.20;;;;;;;;;;5002558;28;20034;-73
2023/11/25 03:57:55;;;;;;;5.90;5.18;;;;;;;;;;5003204;28;20022;-73
2023/11/25 04:00:22;;;;;;;5.82;5.22;;;;;;;;;;5003979;28;20018;-74
2023/11/25 04:02:48;;;;;;;6.90;4.82;;;;;;;;;;4994910;28;20029;-74
2023/11/25 04:05:14;;;;;;;6.85;5.07;;;;;;;;;;4991895;28;20140;-73
2023/11/25 04:07:39;;;;;;;6.70;4.75;;;;;;;;;;4991999;28;20030;-73
2023/11/25 04:10:12;;;;;;;6.15;4.53;;;;;;;;;;4992216;28;20362;-73
2023/11/25 04:12:38;;;;;;;7.53;4.25;;;;;;;;;;5002901;28;20022;-73
2023/11/25 04:15:04;;;;;;;5.85;3.67;;;;;;;;;;5004538;28;20117;-74
2023/11/25 04:17:29;;;;;;;4.60;4.07;;;;;;;;;;5013719;28;20110;-67
2023/11/25 04:19:57;;;;;;;4.32;3.72;;;;;;;;;;5016411;28;20061;-66
2023/11/25 04:22:23;;;;;;;4.25;3.90;;;;;;;;;;5016355;28;20030;-67
2023/11/25 04:24:49;;;;;;;3.78;3.47;;;;;;;;;;4996160;28;20105;-73
2023/11/25 04:27:16;;;;;;;3.97;3.53;;;;;;;;;;5016185;28;20049;-73
2023/11/25 04:29:42;;;;;;;4.72;4.18;;;;;;;;;;4998725;28;20392;-73
2023/11/25 04:32:09;;;;;;;5.10;4.30;;;;;;;;;;5016175;28;20093;-71
2023/11/25 04:34:34;;;;;;;3.78;3.45;;;;;;;;;;5016089;28;20022;-72
2023/11/25 04:37:00;;;;;;;4.28;3.92;;;;;;;;;;5016004;28;20022;-72
2023/11/25 04:39:25;;;;;;;3.30;3.00;;;;;;;;;;5015994;28;20037;-72
2023/11/25 04:41:51;;;;;;;2.83;2.58;;;;;;;;;;5015785;28;20025;-72
2023/11/25 04:44:16;;;;;;;2.22;2.00;;;;;;;;;;5015965;28;20104;-73
2023/11/25 04:46:45;;;;;;;2.20;1.25;;;;;;;;;;5016083;28;20342;-64
2023/11/25 04:49:10;;;;;;;3.65;1.27;;;;;;;;;;5015982;28;20380;-64
2023/11/25 04:51:36;;;;;;;1.40;1.30;;;;;;;;;;5015706;28;20033;-64
2023/11/25 04:54:01;;;;;;;0.85;0.85;;;;;;;;;;5015676;28;20020;-64
2023/11/25 04:56:27;;;;;;;1.02;1.02;;;;;;;;;;5015701;28;20125;-73
2023/11/25 04:58:52;;;;;;;1.08;1.00;;;;;;;;;;5015650;28;20029;-73
2023/11/25 05:01:18;;;;;;;1.10;1.10;;;;;;;;;;5015789;28;20022;-63
2023/11/25 05:03:44;;;;;;;1.73;0.98;;;;;;;;;;4997960;28;20044;-72
2023/11/25 05:06:09;;;;;;;1.08;0.98;;;;;;;;;;5015477;28;20034;-72
2023/11/25 05:08:35;;;;;;;1.27;1.17;;;;;;;;;;5015516;28;20033;-66
2023/11/25 05:11:00;;;;;;;1.30;1.20;;;;;;;;;;5015401;28;20104;-71
2023/11/25 05:13:26;;;;;;;1.23;1.02;;;;;;;;;;5015301;28;20026;-71
2023/11/25 05:15:51;;;;;;;1.30;1.20;;;;;;;;;;5015325;28;20521;-67
2023/11/25 05:18:21;;;;;;;1.25;1.00;;;;;;;;;;4997847;28;20038;-71
2023/11/25 05:20:46;;;;;;;1.10;1.00;;;;;;;;;;5015309;28;20026;-71
2023/11/25 05:23:12;;;;;;;1.30;1.20;;;;;;;;;;5015222;28;20149;-71
2023/11/25 05:25:37;;;;;;;1.20;1.10;;;;;;;;;;5015256;28;20053;-71
2023/11/25 05:28:03;;;;;;;1.52;1.42;;;;;;;;;;5014173;28;20075;-72
2023/11/25 05:30:28;;;;;;;1.23;1.13;;;;;;;;;;5015176;28;20119;-72
2023/11/25 05:32:53;;;;;;;1.10;1.00;;;;;;;;;;5014546;28;20036;-66
2023/11/25 05:35:19;;;;;;;1.13;1.13;;;;;;;;;;4993844;28;20681;-66
2023/11/25 05:37:44;;;;;;;1.48;1.15;;;;;;;;;;5004948;28;20423;-65
2023/11/25 05:40:11;;;;;;;1.40;1.30;;;;;;;;;;5004984;28;20097;-64
2023/11/25 05:42:47;;;;;;;1.15;1.15;;;;;;;;;;4994119;28;20420;-64
2023/11/25 05:45:12;;;;;;;1.08;1.08;;;;;;;;;;5004245;28;20030;-69
2023/11/25 05:47:38;;;;;;;0.90;0.90;;;;;;;;;;5005482;28;20032;-70
2023/11/25 05:50:04;;;;;;;1.30;1.20;;;;;;;;;;5003459;28;20117;-70
2023/11/25 05:52:32;;;;;;;1.83;1.27;;;;;;;;;;5004558;28;20477;-69
2023/11/25 05:54:57;;;;;;;1.40;1.30;;;;;;;;;;4997770;28;20037;-69
2023/11/25 05:57:22;;;;;;;1.55;1.35;;;;;;;;;;4989457;28;20022;-69
2023/11/25 05:59:48;;;;;;;1.50;1.40;;;;;;;;;;5014114;28;20030;-69
2023/11/25 06:02:13;;;;;;;1.35;1.25;;;;;;;;;;5013571;28;20026;-69
2023/11/25 06:04:39;;;;;;;1.85;1.50;;;;;;;;;;5013255;28;20488;-69
2023/11/25 06:07:04;;;;;;;1.52;1.23;;;;;;;;;;4995775;28;20018;-69
2023/11/25 06:09:31;;;;;;;1.27;1.17;;;;;;;;;;5013059;28;20026;-63
2023/11/25 06:11:57;;;;;;;1.70;1.55;;;;;;;;;;5013351;28;20041;-69
2023/11/25 06:14:24;;;;;;;1.40;1.30;;;;;;;;;;4995626;28;20022;-69
2023/11/25 06:16:52;;;;;;;2.92;2.45;;;;;;;;;;4996091;28;20029;-69
2023/11/25 06:19:17;;;;;;;1.30;1.20;;;;;;;;;;4994561;28;20044;-63
2023/11/25 06:21:45;;;;;;;1.17;1.08;;;;;;;;;;4992694;28;20350;-63
2023/11/25 06:24:11;;;;;;;1.50;1.40;;;;;;;;;;5004785;28;20070;-63
2023/11/25 06:26:36;;;;;;;1.23;1.13;;;;;;;;;;5010403;28;20049;-63
2023/11/25 06:29:02;;;;;;;8.85;4.97;;;;;;;;;;5012863;28;20044;-63
2023/11/25 06:31:27;;;;;;;1.60;1.50;;;;;;;;;;5012809;28;20022;-63
2023/11/25 06:33:53;;;;;;;1.20;1.10;;;;;;;;;;5013013;28;20034;-63
2023/11/25 06:36:18;;;;;;;1.20;1.10;;;;;;;;;;5013220;28;20056;-64
2023/11/25 06:38:43;;;;;;;1.15;1.05;;;;;;;;;;5012748;28;20412;-63
2023/11/25 06:41:09;;;;;;;1.30;1.13;;;;;;;;;;5012823;28;20040;-68
2023/11/25 06:43:37;;;;;;;1.30;1.20;;;;;;;;;;5012806;28;20105;-69
2023/11/25 06:46:04;;;;;;;1.92;1.20;;;;;;;;;;5012772;28;20021;-69
2023/11/25 06:48:29;;;;;;;1.77;1.52;;;;;;;;;;5012419;28;20021;-69
2023/11/25 06:50:54;;;;;;;2.10;1.55;;;;;;;;;;5012502;28;20087;-68
2023/11/25 06:53:20;;;;;;;1.50;1.40;;;;;;;;;;5012451;28;20380;-63
2023/11/25 06:55:46;;;;;;;15.45;9.23;;;;;;;;;;5013629;28;20032;-63
2023/11/25 06:58:11;;;;;;;4.18;3.10;;;;;;;;;;5013786;28;20534;-63
2023/11/25 07:00:37;;;;;;;2.00;1.77;;;;;;;;;;5013775;28;20065;-63
2023/11/25 07:03:03;;;;;;;1.50;1.38;;;;;;;;;;5013482;28;20117;-67
2023/11/25 07:05:28;;;;;;;1.58;1.48;;;;;;;;;;5012591;28;20033;-62
2023/11/25 07:07:53;;;;;;;1.60;1.48;;;;;;;;;;5012992;28;20061;-68
2023/11/25 07:10:20;;;;;;;3.00;1.73;;;;;;;;;;5013856;28;20069;-63
2023/11/25 07:12:46;;;;;;;2.00;1.42;;;;;;;;;;5014324;28;20124;-62
2023/11/25 07:15:13;;;;;;;1.70;1.60;;;;;;;;;;5014503;28;20460;-62
2023/11/25 07:17:38;;;;;;;2.33;1.63;;;;;;;;;;5014135;28;20018;-62
2023/11/25 07:20:05;;;;;;;1.60;1.50;;;;;;;;;;5013992;28;20462;-62
2023/11/25 07:22:31;;;;;;;1.67;1.58;;;;;;;;;;5013817;28;20034;-63
2023/11/25 07:24:56;;;;;;;1.35;1.25;;;;;;;;;;5013709;28;20057;-62
2023/11/25 07:27:23;;;;;;;1.80;1.70;;;;;;;;;;5014208;28;20076;-62
2023/11/25 07:29:49;;;;;;;1.70;1.60;;;;;;;;;;4996542;28;20396;-62
2023/11/25 07:32:15;;;;;;;2.60;1.70;;;;;;;;;;5013947;28;20534;-62
2023/11/25 07:34:41;;;;;;;1.73;1.58;;;;;;;;;;5014049;28;20026;-62
2023/11/25 07:37:06;;;;;;;2.13;1.90;;;;;;;;;;5013813;28;20126;-63
2023/11/25 07:39:33;;;;;;;2.03;1.88;;;;;;;;;;4996185;28;20052;-62
2023/11/25 07:41:59;;;;;;;3.97;1.83;;;;;;;;;;5013663;28;20033;-63
2023/11/25 07:44:27;;;;;;;2.63;1.88;;;;;;;;;;5013652;28;20057;-62
2023/11/25 07:46:52;;;;;;;1.88;1.30;;;;;;;;;;5013630;28;20116;-62
2023/11/25 07:49:18;;;;;;;2.40;1.45;;;;;;;;;;5013648;28;20117;-62
2023/11/25 07:51:44;;;;;;;1.92;1.73;;;;;;;;;;5016498;28;20045;-62
2023/11/25 07:54:10;;;;;;;1.45;1.35;;;;;;;;;;4998983;28;20042;-63
2023/11/25 07:56:35;;;;;;;1.52;1.42;;;;;;;;;;4998258;28;20080;-62
2023/11/25 07:59:00;;;;;;;1.73;1.45;;;;;;;;;;5016924;28;20034;-62
2023/11/25 08:01:26;;;;;;;1.92;1.40;;;;;;;;;;4999695;28;20105;-62
2023/11/25 08:03:52;;;;;;;2.22;2.03;;;;;;;;;;5015475;28;20033;-63
2023/11/25 08:06:18;;;;;;;2.03;1.83;;;;;;;;;;4998557;28;20429;-62
2023/11/25 08:08:45;;;;;;;2.72;2.30;;;;;;;;;;4997595;28;20118;-63
2023/11/25 08:11:11;;;;;;;3.67;2.90;;;;;;;;;;4997629;28;20373;-62
2023/11/25 08:13:36;;;;;;;4.82;3.08;;;;;;;;;;5014904;28;20036;-63
2023/11/25 08:16:04;;;;;;;3.13;2.83;;;;;;;;;;4997198;28;20038;-62
2023/11/25 08:18:30;;;;;;;3.55;3.00;;;;;;;;;;4996993;28;20034;-62
2023/11/25 08:20:56;;;;;;;4.68;2.95;;;;;;;;;;5015096;28;20400;-62
2023/11/25 08:23:21;;;;;;;3.25;2.50;;;;;;;;;;4999055;28;20029;-63
2023/11/25 08:25:46;;;;;;;4.72;3.35;;;;;;;;;;5016797;28;20030;-63
2023/11/25 08:28:12;;;;;;;5.70;4.07;;;;;;;;;;4999172;28;20069;-62
2023/11/25 08:30:37;;;;;;;7.95;3.95;;;;;;;;;;4998955;28;20029;-62
2023/11/25 08:33:04;;;;;;;4.57;3.63;;;;;;;;;;5016509;28;20045;-62
2023/11/25 08:35:29;;;;;;;4.35;3.05;;;;;;;;;;5016438;28;20041;-62
2023/11/25 08:37:55;;;;;;;5.03;2.72;;;;;;;;;;5016534;28;20030;-62
2023/11/25 08:40:21;;;;;;;4.55;2.75;;;;;;;;;;4982630;28;20487;-63
2023/11/25 08:42:46;;;;;;;4.75;2.75;;;;;;;;;;5016523;28;20435;-63
2023/11/25 08:45:12;;;;;;;5.57;3.28;;;;;;;;;;4998720;28;20022;-62
2023/11/25 08:47:41;;;;;;;7.32;4.18;;;;;;;;;;4998630;28;20048;-63
2023/11/25 08:50:07;;;;;;;6.05;4.38;;;;;;;;;;5016298;28;20029;-62
2023/11/25 08:52:35;;;;;;;8.88;4.22;;;;;;;;;;5016397;28;20109;-63
2023/11/25 08:55:00;;;;;;;4.45;3.08;;;;;;;;;;4982312;28;20104;-63
2023/11/25 08:57:26;;;;;;;5.95;3.50;;;;;;;;;;5016118;28;20476;-63
2023/11/25 08:59:52;;;;;;;15.80;11.45;;;;;;;;;;5015966;28;20057;-63
2023/11/25 09:02:21;;;;;;;14.65;10.18;;;;;;;;;;5015791;28;20437;-62
2023/11/25 09:04:47;;;;;;;35.25;20.25;;;;;;;;;;5015949;28;20038;-63
2023/11/25 09:07:14;;;;;;;9.07;5.55;;;;;;;;;;4998283;28;20076;-62
2023/11/25 09:09:40;;;;;;;4.07;3.47;;;;;;;;;;5015792;28;20033;-63
2023/11/25 09:12:08;;;;;;;5.38;3.40;;;;;;;;;;5015898;28;20025;-63
2023/11/25 09:14:33;;;;;;;2.80;2.58;;;;;;;;;;5015945;28;20030;-63
2023/11/25 09:16:59;;;;;;;5.03;2.85;;;;;;;;;;5015777;28;20033;-63
2023/11/25 09:19:24;;;;;;;4.47;3.45;;;;;;;;;;5015567;28;20026;-63
2023/11/25 09:21:51;;;;;;;2.90;2.60;;;;;;;;;;4998041;28;20041;-63
2023/11/25 09:24:16;;;;;;;2.33;2.17;;;;;;;;;;5015650;28;20473;-63
2023/11/25 09:26:42;;;;;;;2.50;2.30;;;;;;;;;;4998316;28;20026;-62
2023/11/25 09:29:07;;;;;;;3.35;2.50;;;;;;;;;;5015456;28;20480;-62
2023/11/25 09:31:33;;;;;;;3.95;2.78;;;;;;;;;;4997817;28;20026;-62
2023/11/25 09:33:59;;;;;;;3.90;2.30;;;;;;;;;;4998008;28;20057;-63
2023/11/25 09:36:25;;;;;;;4.05;2.72;;;;;;;;;;4997783;28;20033;-62
2023/11/25 09:38:50;;;;;;;2.92;2.10;;;;;;;;;;5015246;28;20029;-63
2023/11/25 09:41:15;;;;;;;2.22;2.03;;;;;;;;;;5015220;28;20122;-61
2023/11/25 09:43:42;;;;;;;3.88;3.08;;;;;;;;;;5015328;28;20018;-61
2023/11/25 09:46:08;;;;;;;4.28;2.42;;;;;;;;;;5015154;28;20105;-61
2023/11/25 09:48:33;;;;;;;2.30;2.10;;;;;;;;;;4981320;28;20064;-62
2023/11/25 09:50:59;;;;;;;3.75;2.65;;;;;;;;;;5015055;28;20369;-61
2023/11/25 09:53:26;;;;;;;3.85;3.22;;;;;;;;;;5014965;28;20120;-61
2023/11/25 09:56:03;;;;;;;4.68;4.05;;;;;;;;;;5015077;28;20435;-62
2023/11/25 09:58:31;;;;;;;5.10;2.97;;;;;;;;;;4997463;28;20076;-61
2023/11/25 10:00:57;;;;;;;4.07;2.97;;;;;;;;;;4997235;28;20453;-62
2023/11/25 10:03:23;;;;;;;3.40;3.10;;;;;;;;;;4993838;28;20393;-62
2023/11/25 10:05:48;;;;;;;4.60;3.75;;;;;;;;;;4995196;28;20037;-62
2023/11/25 10:08:13;;;;;;;10.40;5.25;;;;;;;;;;4995128;28;20033;-62
2023/11/25 10:10:39;;;;;;;6.30;4.30;;;;;;;;;;4993944;28;20050;-61
2023/11/25 10:13:12;;;;;;;20.40;8.73;;;;;;;;;;4994456;28;20049;-62
2023/11/25 10:15:44;;;;;;;5.82;3.83;;;;;;;;;;4994983;28;20038;-62
2023/11/25 10:18:10;;;;;;;10.55;5.25;;;;;;;;;;4994861;28;20496;-62
2023/11/25 10:20:42;;;;;;;3.03;2.78;;;;;;;;;;4994974;28;20022;-63
2023/11/25 10:23:08;;;;;;;4.25;3.00;;;;;;;;;;4994902;28;20061;-62
2023/11/25 10:25:34;;;;;;;4.13;2.78;;;;;;;;;;4994860;28;20093;-61
2023/11/25 10:27:59;;;;;;;4.32;2.70;;;;;;;;;;4993661;28;20030;-62
2023/11/25 10:30:25;;;;;;;3.65;2.55;;;;;;;;;;4994845;28;20041;-62
2023/11/25 10:32:54;;;;;;;2.45;2.20;;;;;;;;;;4994755;28;20015;-62
2023/11/25 10:35:21;;;;;;;2.00;1.90;;;;;;;;;;4994758;28;20053;-62
2023/11/25 10:37:46;;;;;;;2.28;2.05;;;;;;;;;;4993339;28;20042;-62
2023/11/25 10:40:16;;;;;;;2.40;2.25;;;;;;;;;;4994685;28;20030;-62
2023/11/25 10:42:47;;;;;;;2.67;2.03;;;;;;;;;;4994696;28;20054;-63
2023/11/25 10:45:16;;;;;;;3.17;2.20;;;;;;;;;;4994613;28;20022;-62
2023/11/25 10:47:42;;;;;;;3.38;1.92;;;;;;;;;;4994611;28;20096;-62
2023/11/25 10:50:08;;;;;;;2.20;1.98;;;;;;;;;;4994477;28;20038;-62
2023/11/25 10:52:36;;;;;;;4.38;2.38;;;;;;;;;;4994296;28;20031;-63
2023/11/25 10:55:02;;;;;;;2.25;2.05;;;;;;;;;;4993105;28;20034;-63
2023/11/25 10:57:29;;;;;;;2.17;1.98;;;;;;;;;;4994660;28;20030;-62
2023/11/25 10:59:57;;;;;;;2.67;2.13;;;;;;;;;;4994732;28;20030;-62
2023/11/25 11:02:41;;;;;;;3.10;1.95;;;;;;;;;;4994682;28;20036;-62
2023/11/25 11:05:08;;;;;;;2.45;2.25;;;;;;;;;;4993056;28;20081;-62
2023/11/25 11:07:36;;;;;;;3.47;2.28;;;;;;;;;;4994362;28;20023;-63
2023/11/25 11:10:05;;;;;;;2.53;2.17;;;;;;;;;;4993141;28;20507;-63
2023/11/25 11:12:38;;;;;;;2.30;2.10;;;;;;;;;;4994576;28;20033;-63
2023/11/25 11:15:06;;;;;;;3.17;1.88;;;;;;;;;;4976825;28;20461;-62
2023/11/25 11:17:42;;;;;;;1.98;1.80;;;;;;;;;;4994126;28;20018;-62
2023/11/25 11:20:12;;;;;;;2.53;1.80;;;;;;;;;;4994774;28;20035;-62
2023/11/25 11:22:42;;;;;;;2.17;1.98;;;;;;;;;;4992970;28;20030;-63
2023/11/25 11:25:14;;;;;;;3.95;2.03;;;;;;;;;;4994721;28;20117;-62
2023/11/25 11:27:40;;;;;;;3.28;2.13;;;;;;;;;;4998526;28;20425;-63
2023/11/25 11:30:13;;;;;;;3.40;2.17;;;;;;;;;;4998155;28;20034;-63
2023/11/25 11:32:41;;;;;;;5.60;2.50;;;;;;;;;;4998387;28;20026;-62
2023/11/25 11:35:08;;;;;;;2.78;2.38;;;;;;;;;;4998109;28;20093;-62
2023/11/25 11:37:41;;;;;;;3.65;2.85;;;;;;;;;;4996736;28;20432;-62
2023/11/25 11:40:06;;;;;;;3.17;2.50;;;;;;;;;;4998001;28;20030;-62
2023/11/25 11:42:36;;;;;;;4.88;2.55;;;;;;;;;;4998198;28;20030;-62
2023/11/25 11:45:22;;;;;;;3.38;2.20;;;;;;;;;;4996743;28;20072;-63
2023/11/25 11:47:53;;;;;;;3.25;2.05;;;;;;;;;;4998690;28;20038;-62
2023/11/25 11:50:23;;;;;;;2.83;2.22;;;;;;;;;;4998364;28;20476;-63
2023/11/25 11:53:12;;;;;;;2.83;2.40;;;;;;;;;;4998077;28;20030;-62
2023/11/25 11:55:39;;;;;;;2.22;2.03;;;;;;;;;;4997969;28;20074;-63
2023/11/25 11:58:08;;;;;;;2.45;2.25;;;;;;;;;;4996354;28;20023;-62
2023/11/25 12:00:51;;;;;;;3.20;2.30;;;;;;;;;;4998176;28;20085;-63
2023/11/25 12:03:17;;;;;;;2.88;2.13;;;;;;;;;;4996301;28;20046;-63
2023/11/25 12:05:43;;;;;;;2.25;1.75;;;;;;;;;;4997494;28;20034;-62
2023/11/25 12:08:09;;;;;;;2.33;2.10;;;;;;;;;;4997771;28;20480;-63
2023/11/25 12:10:35;;;;;;;2.17;1.88;;;;;;;;;;4997671;28;20548;-62
2023/11/25 12:13:00;;;;;;;2.65;1.83;;;;;;;;;;4997353;28;20026;-63
2023/11/25 12:15:27;;;;;;;3.70;2.08;;;;;;;;;;4996082;28;20038;-61
2023/11/25 12:17:52;;;;;;;2.00;1.70;;;;;;;;;;4997190;28;20077;-62
2023/11/25 12:20:18;;;;;;;2.33;1.90;;;;;;;;;;4996045;28;20026;-63
2023/11/25 12:22:44;;;;;;;2.33;2.03;;;;;;;;;;4997222;28;20018;-63
2023/11/25 12:25:19;;;;;;;4.32;2.45;;;;;;;;;;4995478;28;20096;-62
2023/11/25 12:27:50;;;;;;;2.33;2.10;;;;;;;;;;4994767;28;20066;-63
2023/11/25 12:30:16;;;;;;;2.83;2.20;;;;;;;;;;4994810;28;20046;-62
2023/11/25 12:32:42;;;;;;;3.25;2.20;;;;;;;;;;4994851;28;20026;-63
2023/11/25 12:35:11;;;;;;;4.43;3.20;;;;;;;;;;4995412;28;20056;-63
2023/11/25 12:37:37;;;;;;;3.75;2.75;;;;;;;;;;4994242;28;20143;-63
2023/11/25 12:40:18;;;;;;;3.72;3.17;;;;;;;;;;4994642;28;20042;-62
2023/11/25 12:42:44;;;;;;;5.38;3.17;;;;;;;;;;4996614;28;20036;-62
2023/11/25 12:45:09;;;;;;;3.42;2.33;;;;;;;;;;4996672;28;20169;-63
2023/11/25 12:47:55;;;;;;;4.60;2.85;;;;;;;;;;4996539;28;20516;-63
2023/11/25 12:50:24;;;;;;;2.40;2.20;;;;;;;;;;4995955;28;20050;-63
2023/11/25 12:53:21;;;;;;;3.97;2.72;;;;;;;;;;4996231;28;20036;-62
2023/11/25 12:55:49;;;;;;;3.50;2.60;;;;;;;;;;4961803;28;20030;-62
2023/11/25 12:58:16;;;;;;;4.45;2.60;;;;;;;;;;4996256;28;20042;-62
2023/11/25 13:00:46;;;;;;;3.63;2.90;;;;;;;;;;4995909;28;20683;-63
2023/11/25 13:03:20;;;;;;;4.37;2.90;;;;;;;;;;4997802;28;20075;-62
2023/11/25 13:05:49;;;;;;;5.60;2.75;;;;;;;;;;4997131;28;20026;-62
2023/11/25 13:08:18;;;;;;;4.90;2.55;;;;;;;;;;5014153;28;20038;-62
2023/11/25 13:10:43;;;;;;;4.75;2.38;;;;;;;;;;5014077;28;20030;-62
2023/11/25 13:13:09;;;;;;;4.43;2.50;;;;;;;;;;4996433;28;20498;-62
2023/11/25 13:15:34;;;;;;;2.90;2.05;;;;;;;;;;4997831;28;20431;-62
2023/11/25 13:18:00;;;;;;;3.70;2.28;;;;;;;;;;5015040;28;20108;-63
2023/11/25 13:20:25;;;;;;;3.28;2.15;;;;;;;;;;5015130;28;20354;-62
2023/11/25 13:22:50;;;;;;;2.50;2.30;;;;;;;;;;5014811;28;20021;-61
2023/11/25 13:25:16;;;;;;;3.08;2.20;;;;;;;;;;5015071;28;20026;-62
2023/11/25 13:27:42;;;;;;;3.20;2.13;;;;;;;;;;5015303;28;20102;-62
2023/11/25 13:30:07;;;;;;;2.97;2.35;;;;;;;;;;5015151;28;20022;-62
2023/11/25 13:32:34;;;;;;;3.13;2.20;;;;;;;;;;5014900;28;20368;-62
2023/11/25 13:34:59;;;;;;;2.83;2.22;;;;;;;;;;5015109;28;20117;-62
2023/11/25 13:37:24;;;;;;;2.20;2.00;;;;;;;;;;4997337;28;20168;-63
2023/11/25 13:39:50;;;;;;;1.70;1.60;;;;;;;;;;5015160;28;20459;-62
2023/11/25 13:42:15;;;;;;;2.10;1.88;;;;;;;;;;5014984;28;20034;-62
2023/11/25 13:44:41;;;;;;;2.83;2.15;;;;;;;;;;4981157;28;20038;-62
2023/11/25 13:47:08;;;;;;;2.67;1.88;;;;;;;;;;5014474;28;20518;-69
2023/11/25 13:49:34;;;;;;;2.45;2.15;;;;;;;;;;5013970;28;20030;-69
2023/11/25 13:52:00;;;;;;;3.22;2.25;;;;;;;;;;5014776;28;20025;-69
2023/11/25 13:54:26;;;;;;;3.40;2.55;;;;;;;;;;5014367;28;20121;-69
2023/11/25 13:56:55;;;;;;;5.53;3.25;;;;;;;;;;4996902;28;20104;-69
2023/11/25 13:59:22;;;;;;;3.67;2.55;;;;;;;;;;5014486;28;20460;-62
2023/11/25 14:01:48;;;;;;;3.08;2.58;;;;;;;;;;5014607;28;20477;-62
2023/11/25 14:04:13;;;;;;;4.28;3.13;;;;;;;;;;4981346;28;20052;-63
2023/11/25 14:06:44;;;;;;;6.43;3.78;;;;;;;;;;4981336;28;20439;-62
2023/11/25 14:09:16;;;;;;;9.27;5.07;;;;;;;;;;4981302;28;20030;-62
2023/11/25 14:11:42;;;;;;;13.75;7.50;;;;;;;;;;4987408;28;20072;-62
2023/11/25 14:14:07;;;;;;;12.90;6.63;;;;;;;;;;5012627;28;20061;-62
2023/11/25 14:16:35;;;;;;;6.90;4.25;;;;;;;;;;5012169;28;20065;-62
2023/11/25 14:19:03;;;;;;;5.25;3.58;;;;;;;;;;5011656;28;20531;-62
2023/11/25 14:21:29;;;;;;;3.20;2.50;;;;;;;;;;5011698;28;20632;-62
2023/11/25 14:23:54;;;;;;;5.82;3.15;;;;;;;;;;5011106;28;20030;-63
2023/11/25 14:26:19;;;;;;;4.32;3.47;;;;;;;;;;4993642;28;20029;-62
2023/11/25 14:28:45;;;;;;;4.47;3.25;;;;;;;;;;5010539;28;20117;-63
2023/11/25 14:31:11;;;;;;;5.75;3.05;;;;;;;;;;5010275;28;20037;-63
2023/11/25 14:33:37;;;;;;;2.70;2.50;;;;;;;;;;4993599;28;20121;-63
2023/11/25 14:36:03;;;;;;;3.33;2.47;;;;;;;;;;5009058;28;20038;-62
2023/11/25 14:38:28;;;;;;;3.55;2.45;;;;;;;;;;5001175;28;20031;-63
2023/11/25 14:40:54;;;;;;;2.97;2.55;;;;;;;;;;5002267;28;20084;-62